TGPY/GND METAR and TAF weather

Enter ICAO airport designator
Station Type Date Time Source
TGPY METAR 2019/06/27 07:00 UTC NOAA

TGPY 270700Z 10018KT 9999 FEW018 27/23 Q1013 NOSIG


Station Type Date Time Source
TGPY Decoded METAR 2019/06/27 07:00 UTC NOAA

Point Salines Airport, Grenada (TGPY) 12-00N 061-47W 7M
Jun 27, 2019 - 03:00 AM EDT / 2019.06.27 0700 UTC
Wind: from the E (100 degrees) at 21 MPH (18 KT):0
Visibility: greater than 7 mile(s):0
Sky conditions: mostly clear
Temperature: 80 F (27 C)
Dew Point: 73 F (23 C)
Relative Humidity: 78%
Pressure (altimeter): 29.91 in. Hg (1013 hPa)
ob: TGPY 270700Z 10018KT 9999 FEW018 27/23 Q1013 NOSIG
cycle: 7

Station Type Date Time Source
TGPY TAF 2019/06/27 06:38 UTC NOAA

TAF TGPY 270422Z 2706/2806 08010KT 9999 FEW018 FM 271200Z 11016KT 9999 FEW020
BECMG 2723/2801 09010KT FEW018

Example: see airport list